Time;durP1;ratioP1;P1;durP2;ratioP2;P2;SDS_P1;SDS_P2;PMS_P1;PMS_P2;Temp;Humidity;BMP_temperature;BMP_pressure;BME280_temperature;BME280_humidity;BME280_pressure;Samples;Min_cycle;Max_cycle;Signal;HPM_P1;HPM_P2
2023/05/10 00:01:42;;;;;;;2.47;1.77;;;15.50;98.00;;;;;;5033892;28;20873;-62
2023/05/10 00:04:10;;;;;;;2.37;1.57;;;15.50;98.00;;;;;;5034089;28;20466;-63
2023/05/10 00:06:37;;;;;;;2.47;1.60;;;15.40;98.00;;;;;;5034002;28;20848;-63
2023/05/10 00:09:04;;;;;;;2.40;1.60;;;15.40;98.00;;;;;;5034131;28;20521;-62
2023/05/10 00:11:31;;;;;;;1.63;1.40;;;15.30;98.00;;;;;;5033921;28;20496;-62
2023/05/10 00:14:01;;;;;;;2.03;1.50;;;15.30;98.00;;;;;;5033901;28;20466;-62
2023/05/10 00:16:30;;;;;;;1.50;1.37;;;15.30;98.00;;;;;;5033863;28;20450;-63
2023/05/10 00:18:57;;;;;;;1.50;1.40;;;15.40;98.00;;;;;;5033887;28;20461;-62
2023/05/10 00:21:25;;;;;;;1.70;1.50;;;15.30;98.00;;;;;;5034065;28;20450;-62
2023/05/10 00:23:52;;;;;;;1.40;1.40;;;15.20;98.00;;;;;;5016084;28;20828;-62
2023/05/10 00:26:19;;;;;;;2.00;1.50;;;15.10;98.00;;;;;;5033840;28;20489;-61
2023/05/10 00:28:46;;;;;;;1.93;1.60;;;15.20;98.00;;;;;;5033729;28;20455;-62
2023/05/10 00:31:14;;;;;;;2.30;1.70;;;15.30;98.00;;;;;;5016029;28;20462;-62
2023/05/10 00:33:42;;;;;;;2.43;1.60;;;15.40;98.00;;;;;;5033560;28;20533;-62
2023/05/10 00:36:10;;;;;;;2.43;1.80;;;15.50;98.00;;;;;;5033881;28;20458;-64
2023/05/10 00:38:37;;;;;;;3.00;1.30;;;15.60;98.00;;;;;;5035065;28;20532;-62
2023/05/10 00:41:04;;;;;;;1.50;1.20;;;15.40;98.00;;;;;;5017384;28;20460;-63
2023/05/10 00:43:31;;;;;;;1.37;1.30;;;15.10;98.00;;;;;;5034249;28;20486;-62
2023/05/10 00:45:58;;;;;;;1.30;1.03;;;14.90;98.00;;;;;;5034009;28;20885;-61
2023/05/10 00:48:25;;;;;;;1.40;1.30;;;14.80;98.00;;;;;;5034529;28;20461;-63
2023/05/10 00:50:54;;;;;;;1.20;1.10;;;14.70;98.00;;;;;;5033932;28;20857;-61
2023/05/10 00:53:21;;;;;;;1.30;1.10;;;14.70;98.00;;;;;;5033423;28;20460;-61
2023/05/10 00:55:49;;;;;;;1.20;1.10;;;14.70;98.00;;;;;;5031983;28;20469;-62
2023/05/10 00:58:16;;;;;;;1.30;1.10;;;14.60;98.00;;;;;;5032898;28;20984;-62
2023/05/10 01:00:44;;;;;;;1.67;1.30;;;14.70;98.00;;;;;;5032957;28;20473;-62
2023/05/10 01:03:12;;;;;;;1.20;1.10;;;14.70;98.00;;;;;;5033096;28;20527;-61
2023/05/10 01:05:39;;;;;;;4.70;1.20;;;14.70;98.00;;;;;;5032758;28;21234;-63
2023/05/10 01:08:08;;;;;;;1.10;1.00;;;14.50;98.00;;;;;;5033081;28;20462;-62
2023/05/10 01:10:37;;;;;;;1.50;1.20;;;14.50;98.00;;;;;;5032887;28;20548;-62
2023/05/10 01:13:04;;;;;;;1.20;1.10;;;14.50;98.00;;;;;;5015186;28;20461;-62
2023/05/10 01:15:32;;;;;;;1.60;1.23;;;14.50;98.00;;;;;;5032801;28;20466;-62
2023/05/10 01:18:01;;;;;;;1.27;1.07;;;14.60;98.00;;;;;;5015149;28;20459;-62
2023/05/10 01:20:30;;;;;;;1.20;1.10;;;14.60;98.00;;;;;;5032823;28;20485;-62
2023/05/10 01:23:20;;;;;;;1.17;1.10;;;14.70;98.00;;;;;;5032636;28;20472;-62
2023/05/10 01:26:20;;;;;;;1.40;1.30;;;14.70;98.00;;;;;;5032583;28;20461;-62
2023/05/10 01:29:12;;;;;;;1.70;1.20;;;14.70;98.00;;;;;;5032688;28;20456;-61
2023/05/10 01:32:12;;;;;;;1.30;1.10;;;14.80;98.00;;;;;;5032802;28;20479;-63
2023/05/10 01:34:47;;;;;;;1.70;1.20;;;14.70;98.00;;;;;;5029719;28;20463;-64
2023/05/10 01:37:19;;;;;;;1.40;1.20;;;14.50;98.00;;;;;;5032804;28;20469;-62
2023/05/10 01:39:55;;;;;;;1.40;1.10;;;14.70;98.00;;;;;;5032605;28;20520;-62
2023/05/10 01:42:26;;;;;;;1.30;1.10;;;14.60;98.00;;;;;;5014941;28;20469;-62
2023/05/10 01:45:01;;;;;;;1.43;1.20;;;14.70;98.00;;;;;;5032345;28;20459;-62
2023/05/10 01:47:36;;;;;;;1.40;1.20;;;14.70;98.00;;;;;;5031724;28;20825;-62
2023/05/10 01:50:06;;;;;;;1.40;1.10;;;14.70;98.00;;;;;;5032157;28;20463;-62
2023/05/10 01:52:38;;;;;;;1.67;1.30;;;14.50;98.00;;;;;;5032039;28;20456;-62
2023/05/10 01:55:10;;;;;;;1.20;1.00;;;14.50;98.00;;;;;;5032148;28;20543;-61
2023/05/10 01:57:39;;;;;;;1.40;1.20;;;14.50;98.00;;;;;;5031979;28;20581;-62
2023/05/10 02:00:09;;;;;;;1.20;1.13;;;14.50;98.00;;;;;;5032009;28;20464;-61
2023/05/10 02:02:39;;;;;;;1.20;1.10;;;14.50;98.00;;;;;;5031880;28;20875;-62
2023/05/10 02:05:08;;;;;;;1.50;1.10;;;14.40;98.00;;;;;;5014265;28;20832;-63
2023/05/10 02:07:37;;;;;;;1.20;1.03;;;14.40;98.00;;;;;;5031620;28;20488;-63
2023/05/10 02:10:05;;;;;;;1.20;1.10;;;14.40;98.00;;;;;;5031798;28;20457;-62
2023/05/10 02:12:35;;;;;;;1.73;1.23;;;14.20;98.00;;;;;;5031739;28;20466;-62
2023/05/10 02:15:05;;;;;;;1.40;1.27;;;14.20;98.00;;;;;;5014648;28;20454;-61
2023/05/10 02:17:34;;;;;;;1.30;1.20;;;14.30;98.00;;;;;;5031576;28;20454;-61
2023/05/10 02:20:03;;;;;;;1.53;1.20;;;14.10;98.00;;;;;;5030543;28;20462;-62
2023/05/10 02:22:31;;;;;;;1.20;1.10;;;14.10;98.00;;;;;;5031502;28;20501;-62
2023/05/10 02:25:01;;;;;;;1.30;1.20;;;14.20;98.00;;;;;;5031681;28;20485;-62
2023/05/10 02:27:30;;;;;;;1.50;1.20;;;14.20;98.00;;;;;;5031485;28;20479;-62
2023/05/10 02:29:58;;;;;;;1.93;1.13;;;14.10;98.00;;;;;;5031648;28;20477;-61
2023/05/10 02:32:27;;;;;;;1.33;1.10;;;14.10;98.00;;;;;;5031312;28;20893;-62
2023/05/10 02:34:55;;;;;;;1.70;1.30;;;14.10;98.00;;;;;;5031400;28;20462;-63
2023/05/10 02:37:24;;;;;;;1.47;1.20;;;14.10;98.00;;;;;;5031324;28;20528;-62
2023/05/10 02:39:55;;;;;;;1.40;1.20;;;14.10;98.00;;;;;;5031274;28;20516;-61
2023/05/10 02:42:26;;;;;;;1.20;1.10;;;14.20;98.00;;;;;;5031387;28;20818;-62
2023/05/10 02:44:57;;;;;;;1.30;1.20;;;14.20;98.00;;;;;;5013602;28;20469;-62
2023/05/10 02:47:24;;;;;;;1.63;1.20;;;14.20;98.00;;;;;;5031148;28;20887;-62
2023/05/10 02:49:52;;;;;;;1.20;1.10;;;14.20;98.00;;;;;;5031162;28;20461;-62
2023/05/10 02:52:25;;;;;;;1.73;1.20;;;14.00;98.00;;;;;;5013758;28;20957;-63
2023/05/10 02:54:56;;;;;;;1.80;1.20;;;14.10;98.00;;;;;;5031053;28;20460;-62
2023/05/10 02:57:28;;;;;;;1.50;1.20;;;14.10;98.00;;;;;;5031090;28;20724;-62
2023/05/10 02:59:56;;;;;;;1.20;1.13;;;14.10;98.00;;;;;;5031046;28;20549;-62
2023/05/10 03:02:23;;;;;;;1.37;1.30;;;14.20;98.00;;;;;;5031072;28;20494;-62
2023/05/10 03:04:50;;;;;;;1.30;1.10;;;14.10;98.00;;;;;;5030985;28;20470;-61
2023/05/10 03:07:20;;;;;;;1.40;1.27;;;14.00;98.00;;;;;;5030908;28;20488;-63
2023/05/10 03:09:52;;;;;;;1.33;1.20;;;14.10;98.00;;;;;;5030931;28;20489;-62
2023/05/10 03:12:28;;;;;;;1.20;1.13;;;14.20;98.00;;;;;;5031127;28;20467;-61
2023/05/10 03:15:04;;;;;;;1.30;1.10;;;14.20;98.00;;;;;;5014002;28;20485;-62
2023/05/10 03:17:37;;;;;;;1.30;1.30;;;14.20;98.00;;;;;;5030894;28;20816;-63
2023/05/10 03:20:11;;;;;;;1.27;1.23;;;14.30;98.00;;;;;;5031037;28;20821;-61
2023/05/10 03:22:41;;;;;;;1.20;1.10;;;14.40;98.00;;;;;;5030937;28;20518;-62
2023/05/10 03:25:17;;;;;;;1.33;1.33;;;14.20;98.00;;;;;;5031204;28;20461;-62
2023/05/10 03:27:46;;;;;;;1.33;1.30;;;14.10;98.00;;;;;;5013533;28;20484;-62
2023/05/10 03:30:13;;;;;;;1.27;1.13;;;14.10;98.00;;;;;;5030868;28;20516;-62
2023/05/10 03:32:41;;;;;;;1.60;1.20;;;14.20;98.00;;;;;;5030705;28;20462;-62
2023/05/10 03:35:09;;;;;;;2.13;1.40;;;14.40;98.00;;;;;;5031199;28;20469;-63
2023/05/10 03:37:36;;;;;;;1.20;1.13;;;14.40;98.00;;;;;;5030740;28;20868;-63
2023/05/10 03:40:03;;;;;;;1.20;1.10;;;14.40;98.00;;;;;;5030871;28;20868;-61
2023/05/10 03:42:32;;;;;;;1.50;1.20;;;14.40;98.00;;;;;;5030666;28;20458;-61
2023/05/10 03:44:59;;;;;;;1.63;1.30;;;14.40;98.00;;;;;;5030794;28;20454;-62
2023/05/10 03:47:32;;;;;;;1.40;1.17;;;14.40;98.00;;;;;;5030505;28;20492;-62
2023/05/10 03:49:59;;;;;;;1.40;1.20;;;14.40;98.00;;;;;;5030640;28;20454;-61
2023/05/10 03:52:26;;;;;;;1.70;1.20;;;14.10;98.00;;;;;;5030621;28;20508;-62
2023/05/10 03:54:53;;;;;;;1.40;1.20;;;14.10;98.00;;;;;;5030553;28;20504;-62
2023/05/10 03:57:20;;;;;;;1.50;1.40;;;14.10;98.00;;;;;;5012827;28;20966;-62
2023/05/10 03:59:48;;;;;;;1.33;1.20;;;14.20;98.00;;;;;;5033732;28;20453;-63
2023/05/10 04:02:15;;;;;;;1.60;1.40;;;14.10;98.00;;;;;;5016587;28;20454;-62
2023/05/10 04:04:43;;;;;;;1.50;1.30;;;14.20;98.00;;;;;;5034143;28;20458;-62
2023/05/10 04:07:10;;;;;;;1.20;1.17;;;14.20;98.00;;;;;;5033988;28;20488;-63
2023/05/10 04:09:37;;;;;;;1.50;1.23;;;14.10;98.00;;;;;;5033990;28;20847;-62
2023/05/10 04:12:05;;;;;;;1.50;1.40;;;14.10;98.00;;;;;;5033926;28;20461;-62
2023/05/10 04:14:32;;;;;;;1.40;1.23;;;14.00;98.00;;;;;;5033900;28;20818;-62
2023/05/10 04:17:01;;;;;;;1.40;1.23;;;14.10;98.00;;;;;;5033977;28;20457;-61
2023/05/10 04:19:30;;;;;;;1.40;1.30;;;14.20;98.00;;;;;;5034318;28;20460;-62
2023/05/10 04:21:58;;;;;;;1.83;1.30;;;14.30;98.00;;;;;;5034006;28;20543;-62
2023/05/10 04:24:25;;;;;;;1.70;1.37;;;14.30;98.00;;;;;;5033654;28;20497;-61
2023/05/10 04:29:36;;;;;;;1.33;1.30;;;14.30;98.00;;;;;;5033332;28;20828;-63
2023/05/10 04:32:04;;;;;;;1.80;1.40;;;14.30;98.00;;;;;;5016124;28;20454;-62
2023/05/10 04:34:33;;;;;;;1.53;1.30;;;14.30;98.00;;;;;;5033663;28;20458;-63
2023/05/10 04:37:00;;;;;;;1.83;1.40;;;14.20;98.00;;;;;;5033391;28;20465;-63
2023/05/10 04:39:28;;;;;;;1.20;1.20;;;14.20;98.00;;;;;;5036608;28;20449;-62
2023/05/10 04:41:55;;;;;;;1.40;1.17;;;14.20;98.00;;;;;;5053268;28;20803;-62
2023/05/10 04:44:23;;;;;;;1.30;1.20;;;14.30;98.00;;;;;;5053305;28;20519;-62
2023/05/10 04:46:50;;;;;;;1.60;1.37;;;14.40;98.00;;;;;;5053001;28;20453;-62
2023/05/10 04:49:18;;;;;;;1.50;1.43;;;14.50;98.00;;;;;;5053290;28;21044;-63
2023/05/10 04:51:46;;;;;;;1.70;1.47;;;14.50;98.00;;;;;;5053113;28;20853;-63
2023/05/10 04:54:13;;;;;;;1.73;1.40;;;14.60;98.00;;;;;;5035844;28;20489;-63
2023/05/10 04:56:40;;;;;;;1.57;1.33;;;14.70;98.00;;;;;;5053159;28;20453;-62
2023/05/10 04:59:08;;;;;;;1.50;1.40;;;14.80;98.00;;;;;;5052950;28;20461;-62
2023/05/10 05:01:35;;;;;;;1.40;1.27;;;15.00;98.00;;;;;;5053157;28;20457;-61
2023/05/10 05:04:03;;;;;;;1.40;1.20;;;15.10;98.00;;;;;;5052996;28;20472;-62
2023/05/10 05:06:31;;;;;;;1.50;1.40;;;15.10;98.00;;;;;;5052942;28;20468;-62
2023/05/10 05:08:58;;;;;;;1.73;1.33;;;15.10;98.00;;;;;;5052431;28;20496;-61
2023/05/10 05:11:26;;;;;;;1.40;1.30;;;15.10;98.00;;;;;;5052323;28;20871;-62
2023/05/10 05:13:53;;;;;;;1.83;1.40;;;15.00;98.00;;;;;;5053164;28;20492;-62
2023/05/10 05:16:20;;;;;;;2.07;1.50;;;14.90;98.00;;;;;;5052884;28;20457;-61
2023/05/10 05:18:47;;;;;;;1.50;1.37;;;14.90;98.00;;;;;;5052885;28;20525;-62
2023/05/10 05:21:16;;;;;;;1.77;1.47;;;14.70;98.00;;;;;;5052825;28;20457;-62
2023/05/10 05:23:45;;;;;;;1.53;1.20;;;14.60;98.00;;;;;;5052644;28;21004;-62
2023/05/10 05:26:12;;;;;;;2.53;1.40;;;14.50;98.00;;;;;;5052658;28;20845;-63
2023/05/10 05:28:43;;;;;;;2.57;1.50;;;14.60;98.00;;;;;;5052405;28;20487;-62
2023/05/10 05:31:10;;;;;;;1.53;1.20;;;14.50;98.00;;;;;;5052297;28;20467;-61
2023/05/10 05:33:37;;;;;;;1.80;1.30;;;14.60;98.00;;;;;;5034809;28;20455;-62
2023/05/10 05:36:05;;;;;;;1.30;1.30;;;14.50;98.00;;;;;;5052202;28;20460;-62
2023/05/10 05:38:32;;;;;;;2.03;1.30;;;14.50;98.00;;;;;;5052300;28;20466;-62
2023/05/10 05:41:01;;;;;;;2.00;1.50;;;14.60;98.00;;;;;;5034620;28;20455;-62
2023/05/10 05:43:28;;;;;;;1.50;1.30;;;14.60;98.00;;;;;;5052234;28;20452;-62
2023/05/10 05:45:57;;;;;;;1.50;1.30;;;14.50;98.00;;;;;;5034358;28;20447;-61
2023/05/10 05:48:24;;;;;;;1.33;1.23;;;14.50;98.00;;;;;;5052063;28;20488;-62
2023/05/10 05:50:55;;;;;;;2.00;1.40;;;14.50;98.00;;;;;;5051972;28;20464;-62
2023/05/10 05:53:22;;;;;;;1.47;1.33;;;14.50;98.00;;;;;;5052225;28;20561;-61
2023/05/10 05:55:53;;;;;;;1.77;1.47;;;14.70;98.00;;;;;;5051936;28;20459;-61
2023/05/10 05:58:22;;;;;;;1.50;1.40;;;14.80;98.00;;;;;;5051944;28;20887;-61
2023/05/10 06:00:49;;;;;;;1.70;1.20;;;15.00;98.00;;;;;;5051772;28;20491;-58
2023/05/10 06:03:16;;;;;;;1.77;1.60;;;15.10;98.00;;;;;;5051977;28;20459;-58
2023/05/10 06:05:43;;;;;;;2.17;1.43;;;15.10;98.00;;;;;;5051848;28;20464;-59
2023/05/10 06:08:14;;;;;;;1.47;1.40;;;15.20;98.00;;;;;;5052038;28;20896;-59
2023/05/10 06:10:41;;;;;;;2.37;1.60;;;15.30;98.00;;;;;;5052144;28;20465;-59
2023/05/10 06:13:08;;;;;;;1.30;1.20;;;15.50;98.00;;;;;;5051666;28;20974;-59
2023/05/10 06:15:36;;;;;;;1.50;1.40;;;15.50;98.00;;;;;;5051763;28;20465;-57
2023/05/10 06:18:03;;;;;;;1.60;1.40;;;15.40;98.00;;;;;;5051427;28;20468;-59
2023/05/10 06:20:31;;;;;;;1.60;1.37;;;15.40;98.00;;;;;;5051247;28;20457;-59
2023/05/10 06:22:58;;;;;;;1.70;1.63;;;15.30;98.00;;;;;;5051324;28;20641;-59
2023/05/10 06:25:25;;;;;;;1.40;1.37;;;15.20;98.00;;;;;;5051405;28;20543;-58
2023/05/10 06:27:56;;;;;;;2.20;2.00;;;15.10;98.00;;;;;;5051134;28;20481;-61
2023/05/10 06:30:27;;;;;;;3.90;1.57;;;15.00;98.00;;;;;;5051523;28;20457;-58
2023/05/10 06:32:56;;;;;;;2.07;1.70;;;15.10;98.00;;;;;;5051234;28;20943;-60
2023/05/10 06:35:23;;;;;;;1.97;1.30;;;15.10;98.00;;;;;;5051289;28;20489;-60
2023/05/10 06:37:50;;;;;;;1.90;1.40;;;15.00;98.00;;;;;;5051136;28;20841;-59
2023/05/10 06:40:18;;;;;;;1.60;1.30;;;15.10;98.00;;;;;;5051048;28;20478;-60
2023/05/10 06:42:46;;;;;;;1.70;1.60;;;15.10;98.00;;;;;;5051085;28;20457;-60
2023/05/10 06:45:14;;;;;;;1.93;1.40;;;15.20;98.00;;;;;;5051114;28;20595;-58
2023/05/10 06:47:42;;;;;;;1.70;1.30;;;15.20;98.00;;;;;;5050982;28;20484;-59
2023/05/10 06:50:12;;;;;;;3.97;1.60;;;15.00;98.00;;;;;;5050887;28;20558;-58
2023/05/10 06:52:39;;;;;;;2.13;1.60;;;15.00;98.00;;;;;;5051025;28;20555;-59
2023/05/10 06:55:08;;;;;;;1.40;1.30;;;15.00;98.00;;;;;;5050950;28;20872;-60
2023/05/10 06:57:35;;;;;;;1.40;1.40;;;15.00;98.00;;;;;;5050964;28;20849;-58
2023/05/10 07:00:03;;;;;;;2.97;1.80;;;15.00;98.00;;;;;;5051120;28;20461;-60
2023/05/10 07:02:30;;;;;;;4.13;1.30;;;15.00;98.00;;;;;;5051237;28;20450;-58
2023/05/10 07:04:57;;;;;;;1.90;1.57;;;15.00;98.00;;;;;;5051651;28;20481;-58
2023/05/10 07:07:26;;;;;;;1.50;1.43;;;15.10;98.00;;;;;;5050953;28;20823;-58
2023/05/10 07:09:53;;;;;;;2.00;1.57;;;15.10;98.00;;;;;;5050737;28;20460;-58
2023/05/10 07:12:20;;;;;;;2.10;1.70;;;15.20;98.00;;;;;;5035992;28;20461;-60
2023/05/10 07:14:47;;;;;;;2.00;1.60;;;15.30;98.00;;;;;;5013265;28;20960;-58
2023/05/10 07:17:14;;;;;;;1.60;1.50;;;15.30;98.00;;;;;;5030838;28;20882;-59
2023/05/10 07:19:41;;;;;;;1.60;1.50;;;15.40;98.00;;;;;;5030878;28;20457;-58
2023/05/10 07:22:10;;;;;;;1.60;1.30;;;15.40;98.00;;;;;;5030694;28;20457;-60
2023/05/10 07:24:38;;;;;;;2.20;1.60;;;15.30;98.00;;;;;;5030459;28;20819;-58
2023/05/10 07:27:05;;;;;;;2.10;1.80;;;15.40;98.00;;;;;;5030861;28;20447;-58
2023/05/10 07:29:32;;;;;;;1.70;1.40;;;15.40;98.00;;;;;;5030313;28;20486;-61
2023/05/10 07:32:01;;;;;;;2.47;1.60;;;15.50;98.00;;;;;;5030691;28;20457;-59
2023/05/10 07:34:29;;;;;;;1.87;1.50;;;15.40;98.00;;;;;;5015981;28;20497;-60
2023/05/10 07:36:57;;;;;;;1.70;1.50;;;15.30;98.00;;;;;;5034328;28;20546;-60
2023/05/10 07:39:24;;;;;;;5.20;1.40;;;15.30;98.00;;;;;;5034460;28;20468;-61
2023/05/10 07:41:54;;;;;;;2.10;1.63;;;15.30;98.00;;;;;;5016782;28;20472;-60
2023/05/10 07:44:21;;;;;;;1.40;1.40;;;15.40;98.00;;;;;;5034461;28;20453;-59
2023/05/10 07:46:48;;;;;;;2.00;1.43;;;15.50;98.00;;;;;;5034202;28;20462;-60
2023/05/10 07:49:16;;;;;;;1.50;1.30;;;15.60;98.00;;;;;;5033732;28;21086;-62
2023/05/10 07:51:43;;;;;;;1.90;1.60;;;15.60;98.00;;;;;;5034312;28;20509;-59
2023/05/10 07:54:10;;;;;;;2.20;1.63;;;15.70;98.00;;;;;;5034408;28;20494;-62
2023/05/10 07:56:37;;;;;;;1.83;1.50;;;15.80;98.00;;;;;;5034193;28;20485;-60
2023/05/10 07:59:06;;;;;;;2.13;1.50;;;15.80;98.00;;;;;;5034022;28;20505;-59
2023/05/10 08:01:35;;;;;;;2.17;1.50;;;15.70;98.00;;;;;;5034253;28;20451;-61
2023/05/10 08:04:02;;;;;;;1.83;1.40;;;15.80;98.00;;;;;;5034129;28;20454;-61
2023/05/10 08:06:30;;;;;;;2.10;1.80;;;15.90;98.00;;;;;;5034067;28;20997;-60
2023/05/10 08:08:57;;;;;;;1.50;1.40;;;16.10;98.00;;;;;;5039394;28;20489;-60
2023/05/10 08:11:27;;;;;;;1.90;1.60;;;16.20;98.00;;;;;;5053790;28;20453;-61
2023/05/10 08:13:54;;;;;;;2.87;1.70;;;16.20;98.00;;;;;;5053733;28;20511;-61
2023/05/10 08:16:24;;;;;;;1.90;1.70;;;16.30;98.00;;;;;;5053780;28;20464;-60
2023/05/10 08:18:51;;;;;;;2.00;1.50;;;16.40;98.00;;;;;;5053718;28;20842;-59
2023/05/10 08:21:18;;;;;;;1.80;1.50;;;16.50;98.00;;;;;;5053625;28;20501;-61
2023/05/10 08:23:45;;;;;;;2.07;1.70;;;16.50;98.00;;;;;;5053613;28;20472;-60
2023/05/10 08:26:12;;;;;;;1.80;1.70;;;16.60;98.00;;;;;;5053233;28;20458;-60
2023/05/10 08:28:40;;;;;;;1.90;1.50;;;16.60;98.00;;;;;;5041449;28;20509;-60
2023/05/10 08:31:07;;;;;;;4.07;1.67;;;16.60;98.00;;;;;;5050841;28;20459;-60
2023/05/10 08:33:37;;;;;;;1.93;1.57;;;16.60;98.00;;;;;;5033654;28;20458;-60
2023/05/10 08:36:04;;;;;;;2.00;1.67;;;16.80;98.00;;;;;;5033405;28;20463;-62
2023/05/10 08:38:33;;;;;;;1.70;1.40;;;16.60;98.00;;;;;;5033236;28;20455;-61
2023/05/10 08:41:02;;;;;;;2.43;1.60;;;16.70;98.00;;;;;;5033259;28;20467;-62
2023/05/10 08:43:31;;;;;;;2.20;1.60;;;16.70;98.00;;;;;;5033227;28;20473;-60
2023/05/10 08:46:01;;;;;;;3.60;1.60;;;16.60;98.00;;;;;;5015783;28;20477;-61
2023/05/10 08:48:30;;;;;;;2.60;1.50;;;16.70;98.00;;;;;;5033076;28;20514;-60
2023/05/10 08:51:01;;;;;;;2.00;1.70;;;16.70;98.00;;;;;;5033269;28;20489;-59
2023/05/10 08:53:31;;;;;;;1.80;1.60;;;16.80;98.00;;;;;;5033174;28;20505;-60
2023/05/10 08:55:58;;;;;;;2.20;1.60;;;16.70;98.00;;;;;;5033271;28;20979;-60
2023/05/10 08:58:26;;;;;;;2.00;1.30;;;16.60;98.00;;;;;;5033063;28;20466;-59
2023/05/10 09:00:54;;;;;;;1.87;1.50;;;16.40;98.00;;;;;;5032637;28;20971;-62
2023/05/10 09:03:21;;;;;;;1.70;1.43;;;16.30;98.00;;;;;;5031543;28;20462;-59
2023/05/10 09:05:49;;;;;;;2.00;1.50;;;16.40;98.00;;;;;;5030301;28;20984;-61
2023/05/10 09:08:18;;;;;;;1.50;1.30;;;16.40;98.00;;;;;;5029921;28;21047;-61
2023/05/10 09:10:47;;;;;;;1.87;1.50;;;16.40;98.00;;;;;;5030309;28;20455;-60
2023/05/10 09:13:16;;;;;;;2.20;1.77;;;16.30;98.00;;;;;;5029564;28;20508;-63
2023/05/10 09:15:44;;;;;;;2.47;1.70;;;16.30;98.00;;;;;;5032546;28;20956;-60
2023/05/10 09:18:11;;;;;;;1.70;1.50;;;16.30;98.00;;;;;;5030005;28;20463;-60
2023/05/10 09:20:38;;;;;;;2.23;1.50;;;16.40;98.00;;;;;;5030940;28;20864;-61
2023/05/10 09:23:05;;;;;;;2.00;1.57;;;16.50;98.00;;;;;;5029738;28;20459;-61
2023/05/10 09:25:34;;;;;;;1.70;1.40;;;16.30;98.00;;;;;;5030097;28;20532;-59
2023/05/10 09:28:01;;;;;;;1.70;1.57;;;16.20;98.00;;;;;;5031042;28;20466;-59
2023/05/10 09:30:30;;;;;;;11.63;1.70;;;16.20;98.00;;;;;;5030916;28;20871;-60
2023/05/10 09:32:58;;;;;;;1.77;1.40;;;16.20;98.00;;;;;;5011502;28;20463;-59
2023/05/10 09:35:28;;;;;;;1.87;1.40;;;16.30;98.00;;;;;;5029387;28;20969;-59
2023/05/10 09:37:57;;;;;;;2.13;1.40;;;16.30;98.00;;;;;;5029698;28;20466;-60
2023/05/10 09:40:25;;;;;;;1.73;1.50;;;16.10;98.00;;;;;;5029162;28;20467;-60
2023/05/10 09:42:55;;;;;;;1.57;1.30;;;16.10;98.00;;;;;;5029573;28;20458;-62
2023/05/10 09:45:22;;;;;;;1.50;1.40;;;16.20;98.00;;;;;;5029293;28;20470;-61
2023/05/10 09:47:50;;;;;;;1.70;1.40;;;16.20;98.00;;;;;;5029553;28;20450;-61
2023/05/10 09:50:17;;;;;;;1.50;1.30;;;16.30;98.00;;;;;;5029133;28;20495;-64
2023/05/10 09:52:48;;;;;;;1.30;1.30;;;16.40;98.00;;;;;;5028898;28;20467;-60
2023/05/10 09:55:16;;;;;;;1.70;1.47;;;16.50;98.00;;;;;;5029581;28;20989;-59
2023/05/10 09:57:44;;;;;;;1.30;1.23;;;16.60;98.00;;;;;;5028763;28;20837;-60
2023/05/10 10:00:18;;;;;;;4.80;1.40;;;16.70;98.00;;;;;;5029449;28;20463;-59
2023/05/10 10:02:47;;;;;;;1.83;1.40;;;16.80;98.00;;;;;;5028101;28;20553;-60
2023/05/10 10:05:16;;;;;;;1.80;1.50;;;16.80;98.00;;;;;;5025593;28;20454;-59
2023/05/10 10:07:49;;;;;;;1.73;1.43;;;16.80;98.00;;;;;;5028621;28;20499;-60
2023/05/10 10:10:16;;;;;;;1.80;1.50;;;16.90;98.00;;;;;;5012153;28;20572;-62
2023/05/10 10:12:44;;;;;;;2.03;1.40;;;17.00;98.00;;;;;;5028018;28;20984;-60
2023/05/10 10:15:13;;;;;;;1.80;1.40;;;17.10;98.00;;;;;;5028981;28;20451;-60
2023/05/10 10:17:41;;;;;;;1.30;1.30;;;17.20;98.00;;;;;;5028504;28;20882;-61
2023/05/10 10:20:10;;;;;;;1.50;1.50;;;17.20;98.00;;;;;;5028874;28;20883;-61
2023/05/10 10:22:38;;;;;;;1.30;1.30;;;17.10;98.00;;;;;;5029225;28;20505;-62
2023/05/10 10:25:06;;;;;;;1.90;1.40;;;17.20;98.00;;;;;;5031468;28;20501;-60
2023/05/10 10:27:44;;;;;;;2.23;1.50;;;17.20;98.00;;;;;;5031468;28;20952;-59
2023/05/10 10:30:24;;;;;;;1.60;1.40;;;17.10;98.00;;;;;;5031421;28;20532;-59
2023/05/10 10:33:20;;;;;;;1.60;1.37;;;17.20;98.00;;;;;;5031045;28;20461;-60
2023/05/10 10:35:48;;;;;;;1.63;1.27;;;17.40;98.00;;;;;;5029431;28;20466;-59
2023/05/10 10:38:15;;;;;;;1.50;1.30;;;17.50;98.00;;;;;;5030192;28;20466;-59
2023/05/10 10:40:42;;;;;;;1.60;1.40;;;17.50;98.00;;;;;;5029116;28;20467;-60
2023/05/10 10:43:25;;;;;;;1.50;1.40;;;17.50;98.00;;;;;;5031304;28;20458;-58
2023/05/10 10:46:14;;;;;;;1.77;1.40;;;17.50;98.00;;;;;;5031178;28;20459;-59
2023/05/10 10:48:41;;;;;;;1.87;1.40;;;17.20;98.00;;;;;;5031067;28;20474;-58
2023/05/10 10:51:08;;;;;;;1.87;1.57;;;17.00;98.00;;;;;;5031406;28;20524;-60
2023/05/10 10:53:41;;;;;;;1.30;1.30;;;16.90;98.00;;;;;;5031157;28;20860;-58
2023/05/10 10:56:09;;;;;;;1.53;1.43;;;16.70;98.00;;;;;;5013995;28;20470;-61
2023/05/10 10:58:37;;;;;;;1.40;1.40;;;16.60;98.00;;;;;;5031059;28;20535;-59
2023/05/10 11:01:18;;;;;;;1.97;1.37;;;16.40;98.00;;;;;;5030800;28;20814;-60
2023/05/10 11:04:18;;;;;;;1.83;1.43;;;16.40;98.00;;;;;;5031296;28;20971;-60
2023/05/10 11:06:45;;;;;;;1.90;1.50;;;16.30;98.00;;;;;;5031378;28;20844;-60
2023/05/10 11:09:13;;;;;;;1.60;1.40;;;16.30;98.00;;;;;;5035371;28;20482;-59
2023/05/10 11:11:51;;;;;;;1.67;1.60;;;16.20;98.00;;;;;;5034915;28;20462;-59
2023/05/10 11:14:22;;;;;;;1.30;1.30;;;16.40;98.00;;;;;;5035304;28;20467;-59
2023/05/10 11:16:51;;;;;;;1.73;1.30;;;16.50;98.00;;;;;;5035002;28;20493;-59
2023/05/10 11:19:19;;;;;;;1.40;1.30;;;16.70;98.00;;;;;;5034925;28;20455;-59
2023/05/10 11:21:48;;;;;;;1.90;1.43;;;16.90;98.00;;;;;;5034845;28;20490;-59
2023/05/10 11:24:16;;;;;;;4.40;1.50;;;16.90;98.00;;;;;;5035263;28;20485;-59
2023/05/10 11:26:44;;;;;;;1.50;1.40;;;17.00;98.00;;;;;;5034804;28;20470;-60
2023/05/10 11:29:11;;;;;;;1.70;1.40;;;17.00;98.00;;;;;;5034660;28;21004;-59
2023/05/10 11:31:44;;;;;;;1.50;1.30;;;17.00;98.00;;;;;;5034697;28;20457;-59
2023/05/10 11:34:23;;;;;;;1.40;1.20;;;17.00;98.00;;;;;;5035188;28;20550;-59
2023/05/10 11:36:53;;;;;;;1.50;1.27;;;16.90;98.00;;;;;;5035010;28;20458;-60
2023/05/10 11:39:21;;;;;;;1.70;1.30;;;16.80;98.00;;;;;;5034781;28;20504;-58
2023/05/10 11:41:51;;;;;;;1.97;1.30;;;16.60;98.00;;;;;;5034695;28;20891;-60
2023/05/10 11:44:18;;;;;;;1.73;1.40;;;16.70;98.00;;;;;;5016760;28;20454;-61
2023/05/10 11:46:45;;;;;;;3.07;1.20;;;16.70;98.00;;;;;;5034575;28;20462;-58
2023/05/10 11:49:14;;;;;;;3.30;1.47;;;16.60;98.00;;;;;;5034567;28;20501;-61
2023/05/10 11:51:43;;;;;;;1.40;1.20;;;16.60;98.00;;;;;;5034592;28;20466;-61
2023/05/10 11:54:11;;;;;;;1.40;1.30;;;16.60;98.00;;;;;;5034652;28;20541;-61
2023/05/10 11:56:39;;;;;;;1.33;1.20;;;16.50;98.00;;;;;;5034243;28;20960;-62
2023/05/10 11:59:06;;;;;;;1.73;1.40;;;16.40;98.00;;;;;;5034239;28;20470;-62
2023/05/10 12:01:34;;;;;;;1.40;1.23;;;16.50;98.00;;;;;;5034196;28;20446;-61
2023/05/10 12:04:01;;;;;;;1.70;1.23;;;16.50;98.00;;;;;;5034067;28;20482;-61
2023/05/10 12:06:31;;;;;;;1.40;1.40;;;16.50;98.00;;;;;;5034213;28;20457;-62
2023/05/10 12:08:59;;;;;;;1.70;1.30;;;16.50;98.00;;;;;;5034028;28;20885;-61
2023/05/10 12:11:28;;;;;;;1.50;1.37;;;16.40;98.00;;;;;;5033926;28;20453;-61
2023/05/10 12:13:56;;;;;;;1.70;1.50;;;16.20;98.00;;;;;;5015846;28;20961;-61
2023/05/10 12:16:26;;;;;;;2.33;1.40;;;16.20;98.00;;;;;;5033914;28;20458;-61
2023/05/10 12:18:54;;;;;;;1.40;1.30;;;16.20;98.00;;;;;;5033381;28;20821;-61
2023/05/10 12:21:22;;;;;;;1.50;1.30;;;16.20;98.00;;;;;;5033955;28;20462;-62
2023/05/10 12:23:52;;;;;;;3.43;1.40;;;16.10;98.00;;;;;;5033930;28;20462;-60
2023/05/10 12:26:22;;;;;;;2.37;1.47;;;16.20;98.00;;;;;;5033872;28;20466;-61
2023/05/10 12:28:49;;;;;;;1.60;1.30;;;16.20;98.00;;;;;;5033811;28;20451;-60
2023/05/10 12:31:16;;;;;;;1.30;1.30;;;16.10;98.00;;;;;;5033788;28;21039;-59
2023/05/10 12:33:46;;;;;;;1.63;1.30;;;16.20;98.00;;;;;;5033582;28;20454;-60
2023/05/10 12:36:14;;;;;;;1.57;1.33;;;16.10;98.00;;;;;;5033535;28;20525;-60
2023/05/10 12:38:43;;;;;;;1.37;1.23;;;16.10;98.00;;;;;;5033468;28;20458;-61
2023/05/10 12:41:13;;;;;;;2.40;1.37;;;16.20;98.00;;;;;;5033641;28;20542;-60
2023/05/10 12:43:41;;;;;;;1.20;1.20;;;16.20;98.00;;;;;;5033547;28;20469;-60
2023/05/10 12:46:09;;;;;;;2.10;1.50;;;16.20;98.00;;;;;;5034024;28;20481;-61
2023/05/10 12:48:36;;;;;;;1.40;1.20;;;16.10;98.00;;;;;;5033667;28;20493;-62
2023/05/10 12:51:05;;;;;;;1.70;1.30;;;16.10;98.00;;;;;;5032635;28;20489;-60
2023/05/10 12:53:32;;;;;;;1.67;1.40;;;16.20;98.00;;;;;;5032314;28;20799;-60
2023/05/10 12:55:59;;;;;;;2.47;1.40;;;16.20;98.00;;;;;;5032576;28;20458;-61
2023/05/10 12:58:27;;;;;;;5.33;1.50;;;16.00;98.00;;;;;;5032900;28;20471;-60
2023/05/10 13:00:56;;;;;;;2.00;1.40;;;16.00;98.00;;;;;;5033110;28;20442;-60